Aviation Digital Data Service (ADDS)

Output produced by METARs form (1251 UTC 24 May 2019)
found at http://www.aviationweather.gov/metar/data/
 
KFLL 241121Z 2412/2518 08012KT P6SM FEW025 SCT050 
     FM241500 08018G28KT P6SM SCT030 SCT050 
     FM250100 09012KT P6SM FEW025 SCT060